Aviation Digital Data Service (ADDS)

Output produced by METARs form (0722 UTC 30 October 2020)
found at http://www.aviationweather.gov/metar/data/
 
METAR text: ZSNB 300700Z 05004MPS 350V090 9999 SCT033 20/10 Q1024 NOSIG
Conditions at: ZSNB (NINGBO/LISHE , CN) observed 0700 UTC 30 October 2020
Temperature: 20.0°C (68°F)
Dewpoint: 10.0°C (50°F) [RH = 53%]
Pressure (altimeter): 30.24 inches Hg (1024.0 mb)
Winds: from the NE (50 degrees) at 9 MPH (8 knots; 4.1 m/s)
Visibility: 6 or more miles (10+ km)
Ceiling: at least 12,000 feet AGL
Clouds: scattered clouds at 3300 feet AGL
Weather: no significant weather observed at this time

METAR text: ZSNB 300600Z 04004MPS 360V080 9999 SCT033 21/10 Q1024 NOSIG
Conditions at: ZSNB (NINGBO/LISHE , CN) observed 0600 UTC 30 October 2020
Temperature: 21.0°C (70°F)
Dewpoint: 10.0°C (50°F) [RH = 49%]
Pressure (altimeter): 30.24 inches Hg (1024.0 mb)
Winds: from the NE (40 degrees) at 9 MPH (8 knots; 4.1 m/s)
Visibility: 6 or more miles (10+ km)
Ceiling: at least 12,000 feet AGL
Clouds: scattered clouds at 3300 feet AGL
Weather: no significant weather observed at this time

METAR text: ZSNB 300500Z 36005MPS 320V050 9999 SCT033 22/09 Q1024 NOSIG
Conditions at: ZSNB (NINGBO/LISHE , CN) observed 0500 UTC 30 October 2020
Temperature: 22.0°C (72°F)
Dewpoint: 9.0°C (48°F) [RH = 43%]
Pressure (altimeter): 30.24 inches Hg (1024.0 mb)
Winds: from the N (360 degrees) at 12 MPH (10 knots; 5.1 m/s)
Visibility: 6 or more miles (10+ km)
Ceiling: at least 12,000 feet AGL
Clouds: scattered clouds at 3300 feet AGL
Weather: no significant weather observed at this time

METAR text: ZSNB 300400Z 01004MPS 320V060 9999 SCT026 22/09 Q1025 NOSIG
Conditions at: ZSNB (NINGBO/LISHE , CN) observed 0400 UTC 30 October 2020
Temperature: 22.0°C (72°F)
Dewpoint: 9.0°C (48°F) [RH = 43%]
Pressure (altimeter): 30.27 inches Hg (1025.0 mb)
Winds: from the N (10 degrees) at 9 MPH (8 knots; 4.1 m/s)
Visibility: 6 or more miles (10+ km)
Ceiling: at least 12,000 feet AGL
Clouds: scattered clouds at 2600 feet AGL
Weather: no significant weather observed at this time

METAR text: ZSNB 300300Z 02004MPS 350V080 9999 SCT026 21/09 Q1026 NOSIG
Conditions at: ZSNB (NINGBO/LISHE , CN) observed 0300 UTC 30 October 2020
Temperature: 21.0°C (70°F)
Dewpoint: 9.0°C (48°F) [RH = 46%]
Pressure (altimeter): 30.30 inches Hg (1026.0 mb)
Winds: from the NNE (20 degrees) at 9 MPH (8 knots; 4.1 m/s)
Visibility: 6 or more miles (10+ km)
Ceiling: at least 12,000 feet AGL
Clouds: scattered clouds at 2600 feet AGL
Weather: no significant weather observed at this time

METAR text: ZSNB 300200Z 34004MPS 310V020 9999 SCT026 20/11 Q1027 NOSIG
Conditions at: ZSNB (NINGBO/LISHE , CN) observed 0200 UTC 30 October 2020
Temperature: 20.0°C (68°F)
Dewpoint: 11.0°C (52°F) [RH = 56%]
Pressure (altimeter): 30.32 inches Hg (1027.0 mb)
Winds: from the NNW (340 degrees) at 9 MPH (8 knots; 4.1 m/s)
Visibility: 6 or more miles (10+ km)
Ceiling: at least 12,000 feet AGL
Clouds: scattered clouds at 2600 feet AGL
Weather: no significant weather observed at this time

METAR text: ZSNB 300100Z 35003MPS 320V030 9999 FEW020 19/12 Q1027 NOSIG
Conditions at: ZSNB (NINGBO/LISHE , CN) observed 0100 UTC 30 October 2020
Temperature: 19.0°C (66°F)
Dewpoint: 12.0°C (54°F) [RH = 64%]
Pressure (altimeter): 30.32 inches Hg (1027.0 mb)
Winds: from the N (350 degrees) at 7 MPH (6 knots; 3.1 m/s)
Visibility: 6 or more miles (10+ km)
Ceiling: at least 12,000 feet AGL
Clouds: few clouds at 2000 feet AGL
Weather: no significant weather observed at this time

METAR text: ZSNB 300000Z 32003MPS 9999 FEW020 17/13 Q1027 NOSIG
Conditions at: ZSNB (NINGBO/LISHE , CN) observed 0000 UTC 30 October 2020
Temperature: 17.0°C (63°F)
Dewpoint: 13.0°C (55°F) [RH = 77%]
Pressure (altimeter): 30.32 inches Hg (1027.0 mb)
Winds: from the NW (320 degrees) at 7 MPH (6 knots; 3.1 m/s)
Visibility: 6 or more miles (10+ km)
Ceiling: at least 12,000 feet AGL
Clouds: few clouds at 2000 feet AGL
Weather: no significant weather observed at this time

METAR text: ZSNB 292300Z 31003MPS CAVOK 14/12 Q1026 NOSIG
Conditions at: ZSNB (NINGBO/LISHE , CN) observed 2300 UTC 29 October 2020
Temperature: 14.0°C (57°F)
Dewpoint: 12.0°C (54°F) [RH = 88%]
Pressure (altimeter): 30.30 inches Hg (1026.0 mb)
Winds: from the NW (310 degrees) at 7 MPH (6 knots; 3.1 m/s)
Visibility: 6 or more miles (10+ km)
Ceiling: ceiling and visibility are OK
Clouds: unknown
Weather: no significant weather observed at this time

METAR text: ZSNB 292200Z 32003MPS CAVOK 13/11 Q1025 NOSIG
Conditions at: ZSNB (NINGBO/LISHE , CN) observed 2200 UTC 29 October 2020
Temperature: 13.0°C (55°F)
Dewpoint: 11.0°C (52°F) [RH = 88%]
Pressure (altimeter): 30.27 inches Hg (1025.0 mb)
Winds: from the NW (320 degrees) at 7 MPH (6 knots; 3.1 m/s)
Visibility: 6 or more miles (10+ km)
Ceiling: ceiling and visibility are OK
Clouds: unknown
Weather: no significant weather observed at this time

METAR text: ZSNB 292100Z 32003MPS CAVOK 13/11 Q1025 NOSIG
Conditions at: ZSNB (NINGBO/LISHE , CN) observed 2100 UTC 29 October 2020
Temperature: 13.0°C (55°F)
Dewpoint: 11.0°C (52°F) [RH = 88%]
Pressure (altimeter): 30.27 inches Hg (1025.0 mb)
Winds: from the NW (320 degrees) at 7 MPH (6 knots; 3.1 m/s)
Visibility: 6 or more miles (10+ km)
Ceiling: ceiling and visibility are OK
Clouds: unknown
Weather: no significant weather observed at this time

METAR text: ZSNB 292000Z 32003MPS CAVOK 13/11 Q1025 NOSIG
Conditions at: ZSNB (NINGBO/LISHE , CN) observed 2000 UTC 29 October 2020
Temperature: 13.0°C (55°F)
Dewpoint: 11.0°C (52°F) [RH = 88%]
Pressure (altimeter): 30.27 inches Hg (1025.0 mb)
Winds: from the NW (320 degrees) at 7 MPH (6 knots; 3.1 m/s)
Visibility: 6 or more miles (10+ km)
Ceiling: ceiling and visibility are OK
Clouds: unknown
Weather: no significant weather observed at this time

METAR text: ZSNB 291900Z 30002MPS CAVOK 13/11 Q1024 NOSIG
Conditions at: ZSNB (NINGBO/LISHE , CN) observed 1900 UTC 29 October 2020
Temperature: 13.0°C (55°F)
Dewpoint: 11.0°C (52°F) [RH = 88%]
Pressure (altimeter): 30.24 inches Hg (1024.0 mb)
Winds: from the WNW (300 degrees) at 5 MPH (4 knots; 2.1 m/s)
Visibility: 6 or more miles (10+ km)
Ceiling: ceiling and visibility are OK
Clouds: unknown
Weather: no significant weather observed at this time

METAR text: ZSNB 291800Z 31003MPS CAVOK 13/11 Q1025 NOSIG
Conditions at: ZSNB (NINGBO/LISHE , CN) observed 1800 UTC 29 October 2020
Temperature: 13.0°C (55°F)
Dewpoint: 11.0°C (52°F) [RH = 88%]
Pressure (altimeter): 30.27 inches Hg (1025.0 mb)
Winds: from the NW (310 degrees) at 7 MPH (6 knots; 3.1 m/s)
Visibility: 6 or more miles (10+ km)
Ceiling: ceiling and visibility are OK
Clouds: unknown
Weather: no significant weather observed at this time

METAR text: ZSNB 291700Z 32003MPS CAVOK 14/12 Q1025 NOSIG
Conditions at: ZSNB (NINGBO/LISHE , CN) observed 1700 UTC 29 October 2020
Temperature: 14.0°C (57°F)
Dewpoint: 12.0°C (54°F) [RH = 88%]
Pressure (altimeter): 30.27 inches Hg (1025.0 mb)
Winds: from the NW (320 degrees) at 7 MPH (6 knots; 3.1 m/s)
Visibility: 6 or more miles (10+ km)
Ceiling: ceiling and visibility are OK
Clouds: unknown
Weather: no significant weather observed at this time

METAR text: ZSNB 291600Z 31003MPS CAVOK 14/12 Q1025 NOSIG
Conditions at: ZSNB (NINGBO/LISHE , CN) observed 1600 UTC 29 October 2020
Temperature: 14.0°C (57°F)
Dewpoint: 12.0°C (54°F) [RH = 88%]
Pressure (altimeter): 30.27 inches Hg (1025.0 mb)
Winds: from the NW (310 degrees) at 7 MPH (6 knots; 3.1 m/s)
Visibility: 6 or more miles (10+ km)
Ceiling: ceiling and visibility are OK
Clouds: unknown
Weather: no significant weather observed at this time

METAR text: ZSNB 291500Z 33002MPS CAVOK 15/12 Q1025 NOSIG
Conditions at: ZSNB (NINGBO/LISHE , CN) observed 1500 UTC 29 October 2020
Temperature: 15.0°C (59°F)
Dewpoint: 12.0°C (54°F) [RH = 82%]
Pressure (altimeter): 30.27 inches Hg (1025.0 mb)
Winds: from the NNW (330 degrees) at 5 MPH (4 knots; 2.1 m/s)
Visibility: 6 or more miles (10+ km)
Ceiling: ceiling and visibility are OK
Clouds: unknown
Weather: no significant weather observed at this time

METAR text: ZSNB 291400Z 33003MPS CAVOK 15/12 Q1025 NOSIG
Conditions at: ZSNB (NINGBO/LISHE , CN) observed 1400 UTC 29 October 2020
Temperature: 15.0°C (59°F)
Dewpoint: 12.0°C (54°F) [RH = 82%]
Pressure (altimeter): 30.27 inches Hg (1025.0 mb)
Winds: from the NNW (330 degrees) at 7 MPH (6 knots; 3.1 m/s)
Visibility: 6 or more miles (10+ km)
Ceiling: ceiling and visibility are OK
Clouds: unknown
Weather: no significant weather observed at this time

METAR text: ZSNB 291300Z 31002MPS CAVOK 15/12 Q1025 NOSIG
Conditions at: ZSNB (NINGBO/LISHE , CN) observed 1300 UTC 29 October 2020
Temperature: 15.0°C (59°F)
Dewpoint: 12.0°C (54°F) [RH = 82%]
Pressure (altimeter): 30.27 inches Hg (1025.0 mb)
Winds: from the NW (310 degrees) at 5 MPH (4 knots; 2.1 m/s)
Visibility: 6 or more miles (10+ km)
Ceiling: ceiling and visibility are OK
Clouds: unknown
Weather: no significant weather observed at this time

METAR text: ZSNB 291200Z 33002MPS CAVOK 16/12 Q1024 NOSIG
Conditions at: ZSNB (NINGBO/LISHE , CN) observed 1200 UTC 29 October 2020
Temperature: 16.0°C (61°F)
Dewpoint: 12.0°C (54°F) [RH = 77%]
Pressure (altimeter): 30.24 inches Hg (1024.0 mb)
Winds: from the NNW (330 degrees) at 5 MPH (4 knots; 2.1 m/s)
Visibility: 6 or more miles (10+ km)
Ceiling: ceiling and visibility are OK
Clouds: unknown
Weather: no significant weather observed at this time

METAR text: ZSNB 291100Z 35002MPS 310V050 CAVOK 18/12 Q1024 NOSIG
Conditions at: ZSNB (NINGBO/LISHE , CN) observed 1100 UTC 29 October 2020
Temperature: 18.0°C (64°F)
Dewpoint: 12.0°C (54°F) [RH = 68%]
Pressure (altimeter): 30.24 inches Hg (1024.0 mb)
Winds: from the N (350 degrees) at 5 MPH (4 knots; 2.1 m/s)
Visibility: 6 or more miles (10+ km)
Ceiling: ceiling and visibility are OK
Clouds: unknown
Weather: no significant weather observed at this time

METAR text: ZSNB 291000Z 02003MPS 330V060 CAVOK 19/12 Q1023 NOSIG
Conditions at: ZSNB (NINGBO/LISHE , CN) observed 1000 UTC 29 October 2020
Temperature: 19.0°C (66°F)
Dewpoint: 12.0°C (54°F) [RH = 64%]
Pressure (altimeter): 30.21 inches Hg (1023.0 mb)
Winds: from the NNE (20 degrees) at 7 MPH (6 knots; 3.1 m/s)
Visibility: 6 or more miles (10+ km)
Ceiling: ceiling and visibility are OK
Clouds: unknown
Weather: no significant weather observed at this time

METAR text: ZSNB 290900Z 03003MPS 360V070 CAVOK 20/12 Q1023 NOSIG
Conditions at: ZSNB (NINGBO/LISHE , CN) observed 0900 UTC 29 October 2020
Temperature: 20.0°C (68°F)
Dewpoint: 12.0°C (54°F) [RH = 60%]
Pressure (altimeter): 30.21 inches Hg (1023.0 mb)
Winds: from the NNE (30 degrees) at 7 MPH (6 knots; 3.1 m/s)
Visibility: 6 or more miles (10+ km)
Ceiling: ceiling and visibility are OK
Clouds: unknown
Weather: no significant weather observed at this time

METAR text: ZSNB 290800Z 04003MPS 360V090 9999 SCT026 20/12 Q1023 NOSIG
Conditions at: ZSNB (NINGBO/LISHE , CN) observed 0800 UTC 29 October 2020
Temperature: 20.0°C (68°F)
Dewpoint: 12.0°C (54°F) [RH = 60%]
Pressure (altimeter): 30.21 inches Hg (1023.0 mb)
Winds: from the NE (40 degrees) at 7 MPH (6 knots; 3.1 m/s)
Visibility: 6 or more miles (10+ km)
Ceiling: at least 12,000 feet AGL
Clouds: scattered clouds at 2600 feet AGL
Weather: no significant weather observed at this time

METAR text: ZSNB 290700Z 05003MPS 010V090 9999 SCT026 21/13 Q1022 NOSIG
Conditions at: ZSNB (NINGBO/LISHE , CN) observed 0700 UTC 29 October 2020
Temperature: 21.0°C (70°F)
Dewpoint: 13.0°C (55°F) [RH = 60%]
Pressure (altimeter): 30.18 inches Hg (1022.0 mb)
Winds: from the NE (50 degrees) at 7 MPH (6 knots; 3.1 m/s)
Visibility: 6 or more miles (10+ km)
Ceiling: at least 12,000 feet AGL
Clouds: scattered clouds at 2600 feet AGL
Weather: no significant weather observed at this time

METAR text: ZSNB 290600Z 36003MPS 320V070 9999 SCT026 22/13 Q1022 NOSIG
Conditions at: ZSNB (NINGBO/LISHE , CN) observed 0600 UTC 29 October 2020
Temperature: 22.0°C (72°F)
Dewpoint: 13.0°C (55°F) [RH = 57%]
Pressure (altimeter): 30.18 inches Hg (1022.0 mb)
Winds: from the N (360 degrees) at 7 MPH (6 knots; 3.1 m/s)
Visibility: 6 or more miles (10+ km)
Ceiling: at least 12,000 feet AGL
Clouds: scattered clouds at 2600 feet AGL
Weather: no significant weather observed at this time

METAR text: ZSNB 290500Z 01003MPS 320V050 9999 FEW026 21/12 Q1023 NOSIG
Conditions at: ZSNB (NINGBO/LISHE , CN) observed 0500 UTC 29 October 2020
Temperature: 21.0°C (70°F)
Dewpoint: 12.0°C (54°F) [RH = 56%]
Pressure (altimeter): 30.21 inches Hg (1023.0 mb)
Winds: from the N (10 degrees) at 7 MPH (6 knots; 3.1 m/s)
Visibility: 6 or more miles (10+ km)
Ceiling: at least 12,000 feet AGL
Clouds: few clouds at 2600 feet AGL
Weather: no significant weather observed at this time

METAR text: ZSNB 290400Z 36003MPS 330V050 9999 FEW026 21/12 Q1024 NOSIG
Conditions at: ZSNB (NINGBO/LISHE , CN) observed 0400 UTC 29 October 2020
Temperature: 21.0°C (70°F)
Dewpoint: 12.0°C (54°F) [RH = 56%]
Pressure (altimeter): 30.24 inches Hg (1024.0 mb)
Winds: from the N (360 degrees) at 7 MPH (6 knots; 3.1 m/s)
Visibility: 6 or more miles (10+ km)
Ceiling: at least 12,000 feet AGL
Clouds: few clouds at 2600 feet AGL
Weather: no significant weather observed at this time

METAR text: ZSNB 290300Z 03002MPS 280V090 9999 SCT026 21/13 Q1025 NOSIG
Conditions at: ZSNB (NINGBO/LISHE , CN) observed 0300 UTC 29 October 2020
Temperature: 21.0°C (70°F)
Dewpoint: 13.0°C (55°F) [RH = 60%]
Pressure (altimeter): 30.27 inches Hg (1025.0 mb)
Winds: from the NNE (30 degrees) at 5 MPH (4 knots; 2.1 m/s)
Visibility: 6 or more miles (10+ km)
Ceiling: at least 12,000 feet AGL
Clouds: scattered clouds at 2600 feet AGL
Weather: no significant weather observed at this time

METAR text: ZSNB 290200Z 06002MPS 350V100 9999 FEW026 21/14 Q1025 NOSIG
Conditions at: ZSNB (NINGBO/LISHE , CN) observed 0200 UTC 29 October 2020
Temperature: 21.0°C (70°F)
Dewpoint: 14.0°C (57°F) [RH = 64%]
Pressure (altimeter): 30.27 inches Hg (1025.0 mb)
Winds: from the ENE (60 degrees) at 5 MPH (4 knots; 2.1 m/s)
Visibility: 6 or more miles (10+ km)
Ceiling: at least 12,000 feet AGL
Clouds: few clouds at 2600 feet AGL
Weather: no significant weather observed at this time

METAR text: ZSNB 290100Z 03003MPS 350V060 9999 SCT020 20/14 Q1025 NOSIG
Conditions at: ZSNB (NINGBO/LISHE , CN) observed 0100 UTC 29 October 2020
Temperature: 20.0°C (68°F)
Dewpoint: 14.0°C (57°F) [RH = 68%]
Pressure (altimeter): 30.27 inches Hg (1025.0 mb)
Winds: from the NNE (30 degrees) at 7 MPH (6 knots; 3.1 m/s)
Visibility: 6 or more miles (10+ km)
Ceiling: at least 12,000 feet AGL
Clouds: scattered clouds at 2000 feet AGL
Weather: no significant weather observed at this time

METAR text: ZSNB 290000Z 04003MPS 010V080 9999 SCT020 20/14 Q1024 NOSIG
Conditions at: ZSNB (NINGBO/LISHE , CN) observed 0000 UTC 29 October 2020
Temperature: 20.0°C (68°F)
Dewpoint: 14.0°C (57°F) [RH = 68%]
Pressure (altimeter): 30.24 inches Hg (1024.0 mb)
Winds: from the NE (40 degrees) at 7 MPH (6 knots; 3.1 m/s)
Visibility: 6 or more miles (10+ km)
Ceiling: at least 12,000 feet AGL
Clouds: scattered clouds at 2000 feet AGL
Weather: no significant weather observed at this time

METAR text: ZSNB 282300Z 03003MPS 350V070 8000 SCT020 20/14 Q1024 NOSIG
Conditions at: ZSNB (NINGBO/LISHE , CN) observed 2300 UTC 28 October 2020
Temperature: 20.0°C (68°F)
Dewpoint: 14.0°C (57°F) [RH = 68%]
Pressure (altimeter): 30.24 inches Hg (1024.0 mb)
Winds: from the NNE (30 degrees) at 7 MPH (6 knots; 3.1 m/s)
Visibility: 5 miles ( 8 km)
Ceiling: at least 12,000 feet AGL
Clouds: scattered clouds at 2000 feet AGL
Weather: no significant weather observed at this time

METAR text: ZSNB 282200Z 04003MPS 8000 BKN020 19/15 Q1023 NOSIG
Conditions at: ZSNB (NINGBO/LISHE , CN) observed 2200 UTC 28 October 2020
Temperature: 19.0°C (66°F)
Dewpoint: 15.0°C (59°F) [RH = 78%]
Pressure (altimeter): 30.21 inches Hg (1023.0 mb)
Winds: from the NE (40 degrees) at 7 MPH (6 knots; 3.1 m/s)
Visibility: 5 miles ( 8 km)
Ceiling: 2000 feet AGL
Clouds: broken clouds at 2000 feet AGL
Weather: no significant weather observed at this time

METAR text: ZSNB 282100Z 35003MPS 320V030 5000 BR BKN020 19/16 Q1023 NOSIG
Conditions at: ZSNB (NINGBO/LISHE , CN) observed 2100 UTC 28 October 2020
Temperature: 19.0°C (66°F)
Dewpoint: 16.0°C (61°F) [RH = 83%]
Pressure (altimeter): 30.21 inches Hg (1023.0 mb)
Winds: from the N (350 degrees) at 7 MPH (6 knots; 3.1 m/s)
Visibility: 3 miles ( 5 km)
Ceiling: 2000 feet AGL
Clouds: broken clouds at 2000 feet AGL
Weather: BR  (mist)

METAR text: ZSNB 282000Z 32002MPS 6000 SCT020 19/16 Q1023 NOSIG
Conditions at: ZSNB (NINGBO/LISHE , CN) observed 2000 UTC 28 October 2020
Temperature: 19.0°C (66°F)
Dewpoint: 16.0°C (61°F) [RH = 83%]
Pressure (altimeter): 30.21 inches Hg (1023.0 mb)
Winds: from the NW (320 degrees) at 5 MPH (4 knots; 2.1 m/s)
Visibility: 4 miles ( 6 km)
Ceiling: at least 12,000 feet AGL
Clouds: scattered clouds at 2000 feet AGL
Weather: no significant weather observed at this time

Forecast for: ZSNB (NINGBO/LISHE , CN)
Text: TAF ZSNB 300302Z 3006/3106 02004MPS 5000 BR SCT030 TX23/3106Z TN12/3021Z
Forecast period: 0600 UTC 30 October 2020 to 0600 UTC 31 October 2020
Forecast type: FROM: standard forecast or significant change
Winds: from the NNE (20 degrees) at 9 MPH (8 knots; 4.1 m/s)
Visibility: 3 miles (5 km)
Ceiling: at least 12,000 feet AGL
Clouds: scattered clouds at 3000 feet AGL
Weather: BR  (mist)